sensor_id;sensor_type;location;lat;lon;timestamp;pressure;altitude;pressure_sealevel;temperature;humidity
63321;BME280;49449;48.800;9.534;2023-10-13T00:01:14;98647.88;;;16.44;43.42
63321;BME280;49449;48.800;9.534;2023-10-13T00:03:42;98648.91;;;16.38;43.67
63321;BME280;49449;48.800;9.534;2023-10-13T00:06:10;98644.91;;;16.36;43.51
63321;BME280;49449;48.800;9.534;2023-10-13T00:08:37;98647.31;;;16.37;43.48
63321;BME280;49449;48.800;9.534;2023-10-13T00:11:06;98642.00;;;16.37;43.60
63321;BME280;49449;48.800;9.534;2023-10-13T00:13:36;98633.75;;;16.39;43.62
63321;BME280;49449;48.800;9.534;2023-10-13T00:16:11;98632.38;;;16.36;43.48
63321;BME280;49449;48.800;9.534;2023-10-13T00:18:43;98634.50;;;16.34;43.60
63321;BME280;49449;48.800;9.534;2023-10-13T00:21:12;98636.13;;;16.30;43.70
63321;BME280;49449;48.800;9.534;2023-10-13T00:23:40;98636.38;;;16.28;43.70
63321;BME280;49449;48.800;9.534;2023-10-13T00:26:19;98630.25;;;16.28;43.80
63321;BME280;49449;48.800;9.534;2023-10-13T00:28:50;98632.09;;;16.27;43.65
63321;BME280;49449;48.800;9.534;2023-10-13T00:31:26;98625.16;;;16.21;43.70
63321;BME280;49449;48.800;9.534;2023-10-13T00:33:59;98616.63;;;16.14;43.99
63321;BME280;49449;48.800;9.534;2023-10-13T00:36:36;98617.16;;;16.16;43.94
63321;BME280;49449;48.800;9.534;2023-10-13T00:39:03;98619.78;;;16.11;44.01
63321;BME280;49449;48.800;9.534;2023-10-13T00:41:33;98616.59;;;16.09;43.91
63321;BME280;49449;48.800;9.534;2023-10-13T00:44:17;98616.59;;;16.09;43.85
63321;BME280;49449;48.800;9.534;2023-10-13T00:46:45;98613.09;;;16.03;44.04
63321;BME280;49449;48.800;9.534;2023-10-13T00:49:15;98610.41;;;15.98;43.86
63321;BME280;49449;48.800;9.534;2023-10-13T00:51:43;98615.72;;;15.98;43.71
63321;BME280;49449;48.800;9.534;2023-10-13T00:54:14;98626.13;;;15.95;43.66
63321;BME280;49449;48.800;9.534;2023-10-13T00:56:46;98625.03;;;15.85;43.72
63321;BME280;49449;48.800;9.534;2023-10-13T00:59:16;98627.13;;;15.83;43.94
63321;BME280;49449;48.800;9.534;2023-10-13T01:01:43;98623.63;;;15.78;43.81
63321;BME280;49449;48.800;9.534;2023-10-13T01:04:13;98623.09;;;15.76;43.60
63321;BME280;49449;48.800;9.534;2023-10-13T01:06:41;98620.13;;;15.67;43.82
63321;BME280;49449;48.800;9.534;2023-10-13T01:09:10;98618.47;;;15.56;44.10
63321;BME280;49449;48.800;9.534;2023-10-13T01:11:39;98621.88;;;15.46;44.44
63321;BME280;49449;48.800;9.534;2023-10-13T01:14:09;98617.91;;;15.53;44.19
63321;BME280;49449;48.800;9.534;2023-10-13T01:16:37;98616.81;;;15.44;44.51
63321;BME280;49449;48.800;9.534;2023-10-13T01:19:10;98613.06;;;15.40;44.42
63321;BME280;49449;48.800;9.534;2023-10-13T01:21:40;98611.19;;;15.41;44.10
63321;BME280;49449;48.800;9.534;2023-10-13T01:24:09;98601.34;;;15.36;44.09
63321;BME280;49449;48.800;9.534;2023-10-13T01:26:40;98611.13;;;15.30;44.66
63321;BME280;49449;48.800;9.534;2023-10-13T01:29:09;98608.75;;;15.29;44.53
63321;BME280;49449;48.800;9.534;2023-10-13T01:31:39;98595.69;;;15.27;44.60
63321;BME280;49449;48.800;9.534;2023-10-13T01:34:13;98599.34;;;15.21;44.28
63321;BME280;49449;48.800;9.534;2023-10-13T01:36:46;98603.38;;;15.24;44.52
63321;BME280;49449;48.800;9.534;2023-10-13T01:39:15;98598.59;;;15.26;44.12
63321;BME280;49449;48.800;9.534;2023-10-13T01:41:43;98597.44;;;15.11;44.52
63321;BME280;49449;48.800;9.534;2023-10-13T01:44:13;98608.63;;;15.13;44.17
63321;BME280;49449;48.800;9.534;2023-10-13T01:46:43;98605.41;;;15.11;44.25
63321;BME280;49449;48.800;9.534;2023-10-13T01:49:12;98607.03;;;15.18;43.85
63321;BME280;49449;48.800;9.534;2023-10-13T01:51:39;98608.13;;;15.22;43.96
63321;BME280;49449;48.800;9.534;2023-10-13T01:54:06;98604.41;;;15.23;43.70
63321;BME280;49449;48.800;9.534;2023-10-13T01:56:39;98601.50;;;15.24;43.74
63321;BME280;49449;48.800;9.534;2023-10-13T01:59:10;98603.91;;;15.26;43.71
63321;BME280;49449;48.800;9.534;2023-10-13T02:01:37;98599.06;;;15.18;43.78
63321;BME280;49449;48.800;9.534;2023-10-13T02:04:07;98590.25;;;15.12;43.66
63321;BME280;49449;48.800;9.534;2023-10-13T02:06:35;98592.31;;;15.05;43.67
63321;BME280;49449;48.800;9.534;2023-10-13T02:09:05;98585.59;;;14.97;44.09
63321;BME280;49449;48.800;9.534;2023-10-13T02:11:39;98584.50;;;14.93;44.32
63321;BME280;49449;48.800;9.534;2023-10-13T02:14:08;98587.22;;;14.98;43.89
63321;BME280;49449;48.800;9.534;2023-10-13T02:16:37;98583.75;;;14.98;44.01
63321;BME280;49449;48.800;9.534;2023-10-13T02:19:05;98580.59;;;15.01;43.45
63321;BME280;49449;48.800;9.534;2023-10-13T02:21:35;98579.47;;;14.96;43.42
63321;BME280;49449;48.800;9.534;2023-10-13T02:24:07;98568.34;;;15.00;43.64
63321;BME280;49449;48.800;9.534;2023-10-13T02:26:41;98573.66;;;15.00;43.76
63321;BME280;49449;48.800;9.534;2023-10-13T02:29:09;98567.53;;;14.99;43.33
63321;BME280;49449;48.800;9.534;2023-10-13T02:31:43;98561.13;;;14.95;43.37
63321;BME280;49449;48.800;9.534;2023-10-13T02:34:21;98570.13;;;14.89;43.90
63321;BME280;49449;48.800;9.534;2023-10-13T02:36:49;98566.69;;;14.88;43.74
63321;BME280;49449;48.800;9.534;2023-10-13T02:39:17;98568.75;;;14.86;43.33
63321;BME280;49449;48.800;9.534;2023-10-13T02:41:53;98555.22;;;14.88;43.61
63321;BME280;49449;48.800;9.534;2023-10-13T02:44:22;98557.59;;;14.84;43.24
63321;BME280;49449;48.800;9.534;2023-10-13T02:46:54;98557.34;;;14.86;43.61
63321;BME280;49449;48.800;9.534;2023-10-13T02:49:23;98549.06;;;14.82;43.53
63321;BME280;49449;48.800;9.534;2023-10-13T02:51:52;98542.94;;;14.82;43.46
63321;BME280;49449;48.800;9.534;2023-10-13T02:54:22;98555.13;;;14.77;43.29
63321;BME280;49449;48.800;9.534;2023-10-13T02:56:48;98551.16;;;14.75;43.24
63321;BME280;49449;48.800;9.534;2023-10-13T02:59:24;98547.41;;;14.71;43.46
63321;BME280;49449;48.800;9.534;2023-10-13T03:02:00;98542.84;;;14.66;43.72
63321;BME280;49449;48.800;9.534;2023-10-13T03:04:33;98540.91;;;14.62;43.33
63321;BME280;49449;48.800;9.534;2023-10-13T03:07:01;98540.13;;;14.61;43.33
63321;BME280;49449;48.800;9.534;2023-10-13T03:09:29;98537.47;;;14.61;43.54
63321;BME280;49449;48.800;9.534;2023-10-13T03:11:56;98539.34;;;14.61;43.66
63321;BME280;49449;48.800;9.534;2023-10-13T03:14:25;98534.28;;;14.59;43.48
63321;BME280;49449;48.800;9.534;2023-10-13T03:16:55;98529.19;;;14.57;43.42
63321;BME280;49449;48.800;9.534;2023-10-13T03:19:29;98527.28;;;14.53;43.24
63321;BME280;49449;48.800;9.534;2023-10-13T03:21:59;98528.91;;;14.54;43.39
63321;BME280;49449;48.800;9.534;2023-10-13T03:24:34;98532.06;;;14.51;43.60
63321;BME280;49449;48.800;9.534;2023-10-13T03:27:02;98531.78;;;14.47;43.75
63321;BME280;49449;48.800;9.534;2023-10-13T03:29:37;98528.06;;;14.48;43.58
63321;BME280;49449;48.800;9.534;2023-10-13T03:32:09;98525.66;;;14.47;43.35
63321;BME280;49449;48.800;9.534;2023-10-13T03:34:39;98535.19;;;14.43;43.55
63321;BME280;49449;48.800;9.534;2023-10-13T03:37:21;98532.72;;;14.36;43.59
63321;BME280;49449;48.800;9.534;2023-10-13T03:40:05;98541.97;;;14.33;43.51
63321;BME280;49449;48.800;9.534;2023-10-13T03:42:42;98537.44;;;14.29;43.31
63321;BME280;49449;48.800;9.534;2023-10-13T03:45:22;98533.41;;;14.26;43.48
63321;BME280;49449;48.800;9.534;2023-10-13T03:47:51;98523.34;;;14.28;43.52
63321;BME280;49449;48.800;9.534;2023-10-13T03:50:19;98527.31;;;14.26;43.71
63321;BME280;49449;48.800;9.534;2023-10-13T03:52:56;98531.00;;;14.25;43.62
63321;BME280;49449;48.800;9.534;2023-10-13T03:55:24;98530.72;;;14.21;43.22
63321;BME280;49449;48.800;9.534;2023-10-13T03:57:53;98521.66;;;14.17;43.68
63321;BME280;49449;48.800;9.534;2023-10-13T04:00:23;98534.63;;;14.13;43.41
63321;BME280;49449;48.800;9.534;2023-10-13T04:02:52;98528.28;;;14.14;43.24
63321;BME280;49449;48.800;9.534;2023-10-13T04:05:33;98527.41;;;14.09;43.28
63321;BME280;49449;48.800;9.534;2023-10-13T04:08:07;98531.38;;;14.06;43.46
63321;BME280;49449;48.800;9.534;2023-10-13T04:11:07;98535.00;;;13.95;43.74
63321;BME280;49449;48.800;9.534;2023-10-13T04:14:01;98530.47;;;13.95;43.63
63321;BME280;49449;48.800;9.534;2023-10-13T04:16:47;98537.28;;;13.86;43.73
63321;BME280;49449;48.800;9.534;2023-10-13T04:19:19;98531.69;;;13.88;43.50
63321;BME280;49449;48.800;9.534;2023-10-13T04:21:55;98527.41;;;13.81;43.92
63321;BME280;49449;48.800;9.534;2023-10-13T04:24:26;98526.59;;;13.81;43.82
63321;BME280;49449;48.800;9.534;2023-10-13T04:27:11;98519.69;;;13.80;43.84
63321;BME280;49449;48.800;9.534;2023-10-13T04:29:58;98526.56;;;13.76;44.02
63321;BME280;49449;48.800;9.534;2023-10-13T04:32:39;98529.16;;;13.71;44.22
63321;BME280;49449;48.800;9.534;2023-10-13T04:35:12;98529.44;;;13.74;44.15
63321;BME280;49449;48.800;9.534;2023-10-13T04:37:45;98524.38;;;13.73;43.99
63321;BME280;49449;48.800;9.534;2023-10-13T04:40:18;98516.97;;;13.75;44.12
63321;BME280;49449;48.800;9.534;2023-10-13T04:42:51;98531.63;;;13.77;44.04
63321;BME280;49449;48.800;9.534;2023-10-13T04:45:20;98519.69;;;13.80;43.86
63321;BME280;49449;48.800;9.534;2023-10-13T04:48:17;98523.44;;;13.84;43.75
63321;BME280;49449;48.800;9.534;2023-10-13T04:50:46;98527.69;;;13.85;43.87
63321;BME280;49449;48.800;9.534;2023-10-13T04:53:15;98516.28;;;13.85;43.70
63321;BME280;49449;48.800;9.534;2023-10-13T04:55:57;98514.13;;;13.81;43.66
63321;BME280;49449;48.800;9.534;2023-10-13T04:58:35;98510.69;;;13.81;43.59
63321;BME280;49449;48.800;9.534;2023-10-13T05:01:32;98510.69;;;13.81;43.23
63321;BME280;49449;48.800;9.534;2023-10-13T05:04:19;98508.28;;;13.79;43.54
63321;BME280;49449;48.800;9.534;2023-10-13T05:07:04;98508.50;;;13.78;43.29
63321;BME280;49449;48.800;9.534;2023-10-13T05:09:49;98507.13;;;13.75;43.35
63321;BME280;49449;48.800;9.534;2023-10-13T05:12:34;98502.91;;;13.74;43.11
63321;BME280;49449;48.800;9.534;2023-10-13T05:15:20;98502.34;;;13.72;43.24
63321;BME280;49449;48.800;9.534;2023-10-13T05:18:05;98505.44;;;13.64;43.36
63321;BME280;49449;48.800;9.534;2023-10-13T05:20:56;98504.56;;;13.58;43.47
63321;BME280;49449;48.800;9.534;2023-10-13T05:23:41;98497.94;;;13.61;43.49
63321;BME280;49449;48.800;9.534;2023-10-13T05:26:27;98496.69;;;13.63;43.22
63321;BME280;49449;48.800;9.534;2023-10-13T05:29:12;98499.25;;;13.58;43.34
63321;BME280;49449;48.800;9.534;2023-10-13T05:32:00;98497.56;;;13.52;43.44
63321;BME280;49449;48.800;9.534;2023-10-13T05:34:45;98503.38;;;13.49;43.53
63321;BME280;49449;48.800;9.534;2023-10-13T05:37:32;98499.19;;;13.53;43.32
63321;BME280;49449;48.800;9.534;2023-10-13T05:40:20;98490.72;;;13.56;43.18
63321;BME280;49449;48.800;9.534;2023-10-13T05:43:05;98490.22;;;13.59;43.11
63321;BME280;49449;48.800;9.534;2023-10-13T05:45:50;98495.28;;;13.61;43.24
63321;BME280;49449;48.800;9.534;2023-10-13T05:48:44;98488.72;;;13.63;43.00
63321;BME280;49449;48.800;9.534;2023-10-13T05:51:26;98494.28;;;13.62;43.04
63321;BME280;49449;48.800;9.534;2023-10-13T05:54:12;98496.59;;;13.58;43.03
63321;BME280;49449;48.800;9.534;2023-10-13T05:56:58;98492.88;;;13.59;42.96
63321;BME280;49449;48.800;9.534;2023-10-13T05:59:43;98495.53;;;13.59;43.03
63321;BME280;49449;48.800;9.534;2023-10-13T06:02:28;98493.69;;;13.60;43.13
63321;BME280;49449;48.800;9.534;2023-10-13T06:05:14;98502.22;;;13.62;42.87
63321;BME280;49449;48.800;9.534;2023-10-13T06:07:59;98502.69;;;13.59;42.79
63321;BME280;49449;48.800;9.534;2023-10-13T06:10:47;98499.25;;;13.58;43.02
63321;BME280;49449;48.800;9.534;2023-10-13T06:13:33;98501.19;;;13.63;42.91
63321;BME280;49449;48.800;9.534;2023-10-13T06:16:19;98502.53;;;13.66;42.67
63321;BME280;49449;48.800;9.534;2023-10-13T06:19:04;98491.44;;;13.69;42.66
63321;BME280;49449;48.800;9.534;2023-10-13T06:21:50;98494.94;;;13.74;42.65
63321;BME280;49449;48.800;9.534;2023-10-13T06:24:35;98502.41;;;13.77;42.72
63321;BME280;49449;48.800;9.534;2023-10-13T06:27:22;98503.06;;;13.90;42.70
63321;BME280;49449;48.800;9.534;2023-10-13T06:30:08;98511.94;;;14.00;42.66
63321;BME280;49449;48.800;9.534;2023-10-13T06:32:36;98515.25;;;14.13;42.54
63321;BME280;49449;48.800;9.534;2023-10-13T06:35:07;98510.53;;;14.20;42.31
63321;BME280;49449;48.800;9.534;2023-10-13T06:37:35;98515.94;;;14.30;42.10
63321;BME280;49449;48.800;9.534;2023-10-13T06:40:10;98508.84;;;14.41;41.93
63321;BME280;49449;48.800;9.534;2023-10-13T06:42:50;98509.13;;;14.45;41.56
63321;BME280;49449;48.800;9.534;2023-10-13T06:45:19;98506.25;;;14.46;41.54
63321;BME280;49449;48.800;9.534;2023-10-13T06:47:48;98502.88;;;14.56;41.49
63321;BME280;49449;48.800;9.534;2023-10-13T06:50:19;98504.81;;;14.66;41.12
63321;BME280;49449;48.800;9.534;2023-10-13T06:52:51;98505.84;;;14.65;41.57
63321;BME280;49449;48.800;9.534;2023-10-13T06:55:21;98507.81;;;14.74;41.36
63321;BME280;49449;48.800;9.534;2023-10-13T06:57:55;98503.44;;;15.01;41.18
63321;BME280;49449;48.800;9.534;2023-10-13T07:00:26;98505.13;;;15.17;40.81
63321;BME280;49449;48.800;9.534;2023-10-13T07:02:56;98502.00;;;15.30;40.98
63321;BME280;49449;48.800;9.534;2023-10-13T07:05:36;98506.09;;;15.48;40.25
63321;BME280;49449;48.800;9.534;2023-10-13T07:08:06;98510.44;;;15.70;40.28
63321;BME280;49449;48.800;9.534;2023-10-13T07:10:34;98507.53;;;15.87;40.09
63321;BME280;49449;48.800;9.534;2023-10-13T07:13:12;98512.59;;;15.94;39.77
63321;BME280;49449;48.800;9.534;2023-10-13T07:15:40;98509.16;;;16.03;39.38
63321;BME280;49449;48.800;9.534;2023-10-13T07:18:12;98515.09;;;16.21;39.25
63321;BME280;49449;48.800;9.534;2023-10-13T07:20:42;98508.97;;;16.36;38.86
63321;BME280;49449;48.800;9.534;2023-10-13T07:23:11;98509.22;;;16.50;38.61
63321;BME280;49449;48.800;9.534;2023-10-13T07:25:51;98511.06;;;16.59;38.14
63321;BME280;49449;48.800;9.534;2023-10-13T07:28:21;98512.16;;;16.69;38.07
63321;BME280;49449;48.800;9.534;2023-10-13T07:30:49;98507.34;;;16.76;37.94
63321;BME280;49449;48.800;9.534;2023-10-13T07:33:37;98504.13;;;16.84;38.03
63321;BME280;49449;48.800;9.534;2023-10-13T07:36:08;98500.66;;;16.94;37.74
63321;BME280;49449;48.800;9.534;2023-10-13T07:38:45;98499.31;;;17.01;37.74
63321;BME280;49449;48.800;9.534;2023-10-13T07:41:36;98496.88;;;17.10;37.88
63321;BME280;49449;48.800;9.534;2023-10-13T07:44:05;98496.84;;;17.20;37.65
63321;BME280;49449;48.800;9.534;2023-10-13T07:46:33;98503.47;;;17.28;37.71
63321;BME280;49449;48.800;9.534;2023-10-13T07:49:02;98502.94;;;17.36;37.52
63321;BME280;49449;48.800;9.534;2023-10-13T07:51:37;98494.66;;;17.38;37.59
63321;BME280;49449;48.800;9.534;2023-10-13T07:54:10;98490.88;;;17.44;37.41
63321;BME280;49449;48.800;9.534;2023-10-13T07:56:40;98494.38;;;17.45;37.84
63321;BME280;49449;48.800;9.534;2023-10-13T07:59:09;98493.25;;;17.51;37.56
63321;BME280;49449;48.800;9.534;2023-10-13T08:01:38;98487.66;;;17.47;37.42
63321;BME280;49449;48.800;9.534;2023-10-13T08:04:09;98490.59;;;17.56;37.28
63321;BME280;49449;48.800;9.534;2023-10-13T08:06:39;98488.91;;;17.70;37.45
63321;BME280;49449;48.800;9.534;2023-10-13T08:09:09;98489.34;;;17.88;37.05
63321;BME280;49449;48.800;9.534;2023-10-13T08:11:55;98481.16;;;18.13;36.93
63321;BME280;49449;48.800;9.534;2023-10-13T08:14:24;98486.13;;;18.30;36.29
63321;BME280;49449;48.800;9.534;2023-10-13T08:17:04;98481.16;;;18.48;36.38
63321;BME280;49449;48.800;9.534;2023-10-13T08:19:34;98481.03;;;18.63;36.11
63321;BME280;49449;48.800;9.534;2023-10-13T08:22:09;98467.75;;;18.82;36.00
63321;BME280;49449;48.800;9.534;2023-10-13T08:24:52;98474.78;;;19.02;35.69
63321;BME280;49449;48.800;9.534;2023-10-13T08:27:22;98470.03;;;19.18;35.44
63321;BME280;49449;48.800;9.534;2023-10-13T08:30:16;98469.56;;;19.35;34.94
63321;BME280;49449;48.800;9.534;2023-10-13T08:32:56;98464.53;;;19.53;34.69
63321;BME280;49449;48.800;9.534;2023-10-13T08:35:26;98460.00;;;19.72;34.82
63321;BME280;49449;48.800;9.534;2023-10-13T08:38:02;98459.19;;;19.91;34.59
63321;BME280;49449;48.800;9.534;2023-10-13T08:40:54;98462.41;;;20.07;34.18
63321;BME280;49449;48.800;9.534;2023-10-13T08:43:42;98461.41;;;20.21;34.25
63321;BME280;49449;48.800;9.534;2023-10-13T08:46:13;98461.97;;;20.37;34.07
63321;BME280;49449;48.800;9.534;2023-10-13T08:48:57;98454.25;;;20.50;33.42
63321;BME280;49449;48.800;9.534;2023-10-13T08:51:42;98451.34;;;20.60;33.33
63321;BME280;49449;48.800;9.534;2023-10-13T08:54:16;98447.59;;;20.75;32.72
63321;BME280;49449;48.800;9.534;2023-10-13T08:57:00;98435.56;;;20.86;32.36
63321;BME280;49449;48.800;9.534;2023-10-13T08:59:46;98438.28;;;21.00;32.36
63321;BME280;49449;48.800;9.534;2023-10-13T09:02:22;98432.31;;;21.17;32.27
63321;BME280;49449;48.800;9.534;2023-10-13T09:05:11;98433.28;;;21.35;31.97
63321;BME280;49449;48.800;9.534;2023-10-13T09:07:53;98424.25;;;21.53;31.45
63321;BME280;49449;48.800;9.534;2023-10-13T09:10:28;98420.00;;;21.66;31.68
63321;BME280;49449;48.800;9.534;2023-10-13T09:12:59;98428.97;;;21.84;31.24
63321;BME280;49449;48.800;9.534;2023-10-13T09:15:37;98428.00;;;22.03;30.86
63321;BME280;49449;48.800;9.534;2023-10-13T09:18:25;98427.03;;;22.21;30.24
63321;BME280;49449;48.800;9.534;2023-10-13T09:21:15;98418.88;;;22.35;29.09
63321;BME280;49449;48.800;9.534;2023-10-13T09:24:13;98418.47;;;22.50;29.00
63321;BME280;49449;48.800;9.534;2023-10-13T09:26:48;98418.69;;;22.63;28.89
63321;BME280;49449;48.800;9.534;2023-10-13T09:29:20;98417.31;;;22.74;28.36
63321;BME280;49449;48.800;9.534;2023-10-13T09:31:49;98408.16;;;22.84;28.75
63321;BME280;49449;48.800;9.534;2023-10-13T09:34:28;98415.34;;;22.97;28.66
63321;BME280;49449;48.800;9.534;2023-10-13T09:37:00;98410.78;;;23.15;28.18
63321;BME280;49449;48.800;9.534;2023-10-13T09:39:32;98410.81;;;23.33;28.06
63321;BME280;49449;48.800;9.534;2023-10-13T09:42:11;98407.84;;;23.52;27.36
63321;BME280;49449;48.800;9.534;2023-10-13T09:44:40;98401.16;;;23.67;27.10
63321;BME280;49449;48.800;9.534;2023-10-13T09:47:10;98396.72;;;23.79;27.12
63321;BME280;49449;48.800;9.534;2023-10-13T09:49:46;98393.09;;;23.93;27.56
63321;BME280;49449;48.800;9.534;2023-10-13T09:52:18;98388.00;;;24.00;26.91
63321;BME280;49449;48.800;9.534;2023-10-13T09:55:11;98384.16;;;24.10;26.31
63321;BME280;49449;48.800;9.534;2023-10-13T09:57:44;98378.38;;;24.29;26.18
63321;BME280;49449;48.800;9.534;2023-10-13T10:00:17;98382.78;;;24.42;26.05
63321;BME280;49449;48.800;9.534;2023-10-13T10:03:13;98376.25;;;24.52;25.34
63321;BME280;49449;48.800;9.534;2023-10-13T10:05:58;98375.59;;;24.55;25.75
63321;BME280;49449;48.800;9.534;2023-10-13T10:08:33;98371.44;;;24.66;24.86
63321;BME280;49449;48.800;9.534;2023-10-13T10:11:07;98361.38;;;24.75;24.08
63321;BME280;49449;48.800;9.534;2023-10-13T10:13:50;98357.16;;;24.87;22.77
63321;BME280;49449;48.800;9.534;2023-10-13T10:16:29;98349.59;;;25.01;21.91
63321;BME280;49449;48.800;9.534;2023-10-13T10:19:04;98348.78;;;25.09;20.75
63321;BME280;49449;48.800;9.534;2023-10-13T10:21:35;98353.41;;;25.09;20.68
63321;BME280;49449;48.800;9.534;2023-10-13T10:24:14;98344.41;;;25.17;20.57
63321;BME280;49449;48.800;9.534;2023-10-13T10:26:53;98345.63;;;25.28;19.68
63321;BME280;49449;48.800;9.534;2023-10-13T10:29:22;98342.53;;;25.39;19.94
63321;BME280;49449;48.800;9.534;2023-10-13T10:31:49;98339.75;;;25.26;18.16
63321;BME280;49449;48.800;9.534;2023-10-13T10:34:18;98337.44;;;25.16;18.69
63321;BME280;49449;48.800;9.534;2023-10-13T10:36:53;98330.97;;;25.29;19.38
63321;BME280;49449;48.800;9.534;2023-10-13T10:39:33;98320.41;;;25.37;18.58
63321;BME280;49449;48.800;9.534;2023-10-13T10:42:12;98322.03;;;25.50;19.39
63321;BME280;49449;48.800;9.534;2023-10-13T10:44:44;98317.75;;;25.49;17.68
63321;BME280;49449;48.800;9.534;2023-10-13T10:47:15;98313.22;;;25.62;18.83
63321;BME280;49449;48.800;9.534;2023-10-13T10:49:46;98313.13;;;25.71;18.76
63321;BME280;49449;48.800;9.534;2023-10-13T10:52:17;98309.06;;;25.77;19.04
63321;BME280;49449;48.800;9.534;2023-10-13T10:54:58;98309.22;;;25.93;18.71
63321;BME280;49449;48.800;9.534;2023-10-13T10:57:26;98306.19;;;26.06;18.42
63321;BME280;49449;48.800;9.534;2023-10-13T10:59:56;98289.31;;;26.22;18.27
63321;BME280;49449;48.800;9.534;2023-10-13T11:02:37;98290.22;;;26.14;17.28
63321;BME280;49449;48.800;9.534;2023-10-13T11:05:06;98278.81;;;26.08;19.10
63321;BME280;49449;48.800;9.534;2023-10-13T11:07:45;98281.75;;;26.15;17.00
63321;BME280;49449;48.800;9.534;2023-10-13T11:10:16;98274.06;;;26.05;17.58
63321;BME280;49449;48.800;9.534;2023-10-13T11:12:56;98274.72;;;26.02;17.88
63321;BME280;49449;48.800;9.534;2023-10-13T11:15:41;98262.38;;;26.13;18.52
63321;BME280;49449;48.800;9.534;2023-10-13T11:18:11;98270.59;;;26.17;18.80
63321;BME280;49449;48.800;9.534;2023-10-13T11:20:43;98268.41;;;26.10;17.82
63321;BME280;49449;48.800;9.534;2023-10-13T11:23:12;98262.47;;;26.17;18.35
63321;BME280;49449;48.800;9.534;2023-10-13T11:25:41;98266.84;;;26.09;18.54
63321;BME280;49449;48.800;9.534;2023-10-13T11:28:11;98258.00;;;25.75;17.98
63321;BME280;49449;48.800;9.534;2023-10-13T11:30:46;98249.78;;;25.72;18.21
63321;BME280;49449;48.800;9.534;2023-10-13T11:33:17;98251.72;;;25.38;18.58
63321;BME280;49449;48.800;9.534;2023-10-13T11:35:50;98248.69;;;25.52;18.79
63321;BME280;49449;48.800;9.534;2023-10-13T11:38:31;98247.72;;;25.56;18.65
63321;BME280;49449;48.800;9.534;2023-10-13T11:41:09;98234.47;;;25.63;18.80
63321;BME280;49449;48.800;9.534;2023-10-13T11:43:44;98239.50;;;25.65;18.16
63321;BME280;49449;48.800;9.534;2023-10-13T11:46:39;98230.69;;;25.56;18.74
63321;BME280;49449;48.800;9.534;2023-10-13T11:49:21;98234.28;;;25.47;18.18
63321;BME280;49449;48.800;9.534;2023-10-13T11:52:01;98230.09;;;25.50;18.56
63321;BME280;49449;48.800;9.534;2023-10-13T11:54:45;98231.97;;;25.71;19.20
63321;BME280;49449;48.800;9.534;2023-10-13T11:57:14;98230.69;;;25.56;17.62
63321;BME280;49449;48.800;9.534;2023-10-13T11:59:46;98221.78;;;25.55;18.19
63321;BME280;49449;48.800;9.534;2023-10-13T12:02:22;98218.59;;;25.86;18.84
63321;BME280;49449;48.800;9.534;2023-10-13T12:05:12;98204.47;;;25.93;19.61
63321;BME280;49449;48.800;9.534;2023-10-13T12:07:43;98199.75;;;26.02;19.44
63321;BME280;49449;48.800;9.534;2023-10-13T12:10:17;98198.19;;;26.14;17.38
63321;BME280;49449;48.800;9.534;2023-10-13T12:12:59;98188.94;;;26.02;17.15
63321;BME280;49449;48.800;9.534;2023-10-13T12:15:33;98189.84;;;26.19;17.48
63321;BME280;49449;48.800;9.534;2023-10-13T12:18:15;98189.94;;;26.22;16.22
63321;BME280;49449;48.800;9.534;2023-10-13T12:20:43;98177.06;;;26.32;18.14
63321;BME280;49449;48.800;9.534;2023-10-13T12:23:13;98174.47;;;26.35;18.08
63321;BME280;49449;48.800;9.534;2023-10-13T12:25:48;98169.72;;;26.44;17.65
63321;BME280;49449;48.800;9.534;2023-10-13T12:28:24;98166.78;;;26.50;17.42
63321;BME280;49449;48.800;9.534;2023-10-13T12:30:54;98168.09;;;26.56;17.06
63321;BME280;49449;48.800;9.534;2023-10-13T12:33:25;98162.78;;;26.59;17.38
63321;BME280;49449;48.800;9.534;2023-10-13T12:35:57;98167.00;;;26.44;16.83
63321;BME280;49449;48.800;9.534;2023-10-13T12:38:34;98156.63;;;26.47;15.75
63321;BME280;49449;48.800;9.534;2023-10-13T12:41:19;98157.59;;;26.54;17.00
63321;BME280;49449;48.800;9.534;2023-10-13T12:44:05;98142.50;;;26.53;16.93
63321;BME280;49449;48.800;9.534;2023-10-13T12:46:51;98152.66;;;26.44;17.12
63321;BME280;49449;48.800;9.534;2023-10-13T12:49:37;98146.66;;;26.51;18.09
63321;BME280;49449;48.800;9.534;2023-10-13T12:52:24;98138.94;;;26.37;16.70
63321;BME280;49449;48.800;9.534;2023-10-13T12:54:58;98143.09;;;26.47;17.29
63321;BME280;49449;48.800;9.534;2023-10-13T12:57:34;98135.38;;;26.20;16.15
63321;BME280;49449;48.800;9.534;2023-10-13T13:00:12;98135.69;;;26.19;16.19
63321;BME280;49449;48.800;9.534;2023-10-13T13:03:00;98131.66;;;26.00;16.37
63321;BME280;49449;48.800;9.534;2023-10-13T13:05:37;98123.28;;;26.05;17.25
63321;BME280;49449;48.800;9.534;2023-10-13T13:08:11;98131.78;;;25.92;16.09
63321;BME280;49449;48.800;9.534;2023-10-13T13:10:48;98128.03;;;26.09;16.75
63321;BME280;49449;48.800;9.534;2023-10-13T13:13:17;98119.16;;;25.83;16.80
63321;BME280;49449;48.800;9.534;2023-10-13T13:15:51;98119.47;;;26.06;16.67
63321;BME280;49449;48.800;9.534;2023-10-13T13:18:19;98104.03;;;25.82;16.95
63321;BME280;49449;48.800;9.534;2023-10-13T13:20:47;98116.22;;;25.88;16.97
63321;BME280;49449;48.800;9.534;2023-10-13T13:23:21;98104.63;;;25.88;16.75
63321;BME280;49449;48.800;9.534;2023-10-13T13:25:52;98101.44;;;25.86;16.45
63321;BME280;49449;48.800;9.534;2023-10-13T13:28:21;98098.16;;;25.93;17.58
63321;BME280;49449;48.800;9.534;2023-10-13T13:30:50;98087.00;;;25.94;16.65
63321;BME280;49449;48.800;9.534;2023-10-13T13:33:21;98092.50;;;26.10;17.38
63321;BME280;49449;48.800;9.534;2023-10-13T13:35:54;98090.38;;;26.16;17.27
63321;BME280;49449;48.800;9.534;2023-10-13T13:38:26;98088.00;;;26.14;17.36
63321;BME280;49449;48.800;9.534;2023-10-13T13:40:58;98076.34;;;26.26;16.64
63321;BME280;49449;48.800;9.534;2023-10-13T13:43:29;98067.34;;;26.22;16.80